EGHI/SOU METAR and TAF weather

Enter ICAO airport designator
Station Type Date Time Source
EGHI METAR 2020/07/15 08:50 UTC NOAA

EGHI 150850Z 28004KT 250V340 9999 SCT020 16/11 Q1016


Station Type Date Time Source
EGHI Decoded METAR 2020/07/15 08:50 UTC NOAA

Southampton / Weather Centre, United Kingdom (EGHI) 50-54N 001-24W 0M
Jul 15, 2020 - 04:50 AM EDT / 2020.07.15 0850 UTC
Wind: from the W (280 degrees) at 5 MPH (4 KT) (direction variable):0
Visibility: greater than 7 mile(s):0
Sky conditions: partly cloudy
Temperature: 60 F (16 C)
Dew Point: 51 F (11 C)
Relative Humidity: 72%
Pressure (altimeter): 30.00 in. Hg (1016 hPa)
ob: EGHI 150850Z 28004KT 250V340 9999 SCT020 16/11 Q1016
cycle: 9

Station Type Date Time Source
EGHI TAF 2020/02/21 21:54 UTC NOAA

TAF EGHI 210345Z 2021/2123 CNL

Example: see airport list